createdAt,value
2023-05-11T00:02:15.416Z,6.00
2023-05-11T00:04:44.506Z,6.23
2023-05-11T00:07:13.158Z,5.87
2023-05-11T00:09:44.305Z,6.27
2023-05-11T00:12:14.680Z,5.57
2023-05-11T00:14:43.410Z,5.30
2023-05-11T00:17:12.254Z,5.03
2023-05-11T00:19:40.922Z,6.17
2023-05-11T00:22:09.592Z,5.90
2023-05-11T00:24:39.380Z,4.97
2023-05-11T00:27:07.979Z,5.77
2023-05-11T00:29:38.040Z,5.77
2023-05-11T00:32:06.718Z,6.40
2023-05-11T00:34:35.527Z,6.10
2023-05-11T00:37:04.526Z,5.90
2023-05-11T00:39:38.826Z,5.93
2023-05-11T00:42:07.772Z,5.83
2023-05-11T00:44:38.061Z,5.40
2023-05-11T00:47:07.112Z,6.70
2023-05-11T00:49:35.956Z,6.13
2023-05-11T00:52:04.951Z,6.30
2023-05-11T00:54:33.586Z,5.47
2023-05-11T00:57:02.994Z,6.90
2023-05-11T00:59:31.670Z,6.40
2023-05-11T01:02:01.917Z,6.27
2023-05-11T01:04:30.885Z,5.63
2023-05-11T01:07:06.118Z,6.13
2023-05-11T01:09:47.843Z,6.00
2023-05-11T01:12:27.624Z,6.13
2023-05-11T01:15:03.557Z,6.00
2023-05-11T01:17:44.570Z,6.57
2023-05-11T01:20:19.987Z,5.63
2023-05-11T01:23:16.769Z,5.67
2023-05-11T01:26:10.253Z,6.50
2023-05-11T01:29:12.148Z,6.10
2023-05-11T01:31:44.169Z,6.23
2023-05-11T01:34:18.490Z,6.70
2023-05-11T01:36:52.685Z,6.53
2023-05-11T01:39:28.336Z,6.30
2023-05-11T01:41:59.824Z,5.63
2023-05-11T01:44:33.659Z,5.67
2023-05-11T01:47:04.977Z,6.70
2023-05-11T01:49:38.897Z,6.10
2023-05-11T01:52:10.068Z,6.20
2023-05-11T01:54:40.043Z,6.13
2023-05-11T01:57:10.644Z,5.90
2023-05-11T01:59:44.783Z,5.67
2023-05-11T02:02:16.788Z,7.03
2023-05-11T02:04:46.805Z,6.80
2023-05-11T02:07:17.881Z,6.07
2023-05-11T02:09:47.381Z,7.37
2023-05-11T02:12:19.532Z,6.10
2023-05-11T02:14:48.871Z,6.67
2023-05-11T02:17:22.323Z,6.57
2023-05-11T02:19:52.300Z,6.17
2023-05-11T02:22:22.055Z,9.53
2023-05-11T02:24:51.473Z,6.03
2023-05-11T02:27:20.167Z,5.70
2023-05-11T02:29:49.337Z,6.27
2023-05-11T02:32:21.790Z,6.80
2023-05-11T02:35:01.613Z,6.30
2023-05-11T02:37:31.949Z,6.27
2023-05-11T02:40:06.639Z,6.23
2023-05-11T02:42:40.533Z,6.40
2023-05-11T02:45:12.890Z,7.50
2023-05-11T02:47:45.326Z,6.10
2023-05-11T02:50:14.818Z,6.37
2023-05-11T02:52:47.314Z,6.30
2023-05-11T02:55:17.815Z,7.30
2023-05-11T02:57:46.811Z,6.77
2023-05-11T03:00:18.072Z,7.60
2023-05-11T03:02:48.716Z,6.70
2023-05-11T03:05:17.423Z,6.90
2023-05-11T03:07:46.104Z,7.33
2023-05-11T03:10:15.957Z,6.77
2023-05-11T03:12:45.423Z,7.17
2023-05-11T03:15:14.543Z,6.43
2023-05-11T03:17:44.666Z,6.90
2023-05-11T03:20:17.031Z,6.30
2023-05-11T03:22:48.336Z,6.70
2023-05-11T03:25:18.616Z,6.70
2023-05-11T03:27:47.883Z,7.37
2023-05-11T03:30:18.597Z,6.90
2023-05-11T03:32:47.713Z,7.53
2023-05-11T03:35:18.940Z,6.53
2023-05-11T03:37:48.912Z,8.20
2023-05-11T03:40:20.996Z,6.63
2023-05-11T03:42:50.394Z,6.60
2023-05-11T03:45:21.452Z,6.93
2023-05-11T03:47:51.569Z,7.40
2023-05-11T03:50:22.641Z,6.83
2023-05-11T03:52:52.308Z,7.70
2023-05-11T03:55:21.651Z,6.93
2023-05-11T03:57:50.996Z,8.10
2023-05-11T04:00:20.939Z,7.03
2023-05-11T04:02:49.869Z,6.03
2023-05-11T04:05:19.422Z,7.80
2023-05-11T04:07:49.645Z,6.57
2023-05-11T04:10:18.505Z,7.57
2023-05-11T04:12:47.376Z,6.93
2023-05-11T04:15:16.216Z,6.93
2023-05-11T04:17:44.952Z,6.70
2023-05-11T04:20:13.924Z,7.20
2023-05-11T04:22:42.563Z,7.37
2023-05-11T04:25:13.855Z,7.60
2023-05-11T04:27:42.624Z,6.60
2023-05-11T04:30:11.948Z,6.77
2023-05-11T04:32:40.666Z,7.83
2023-05-11T04:35:10.026Z,7.40
2023-05-11T04:37:38.691Z,8.20
2023-05-11T04:40:08.817Z,6.70
2023-05-11T04:42:38.927Z,6.70
2023-05-11T04:45:10.974Z,7.80
2023-05-11T04:47:39.811Z,7.20
2023-05-11T04:50:09.592Z,7.80
2023-05-11T04:52:38.369Z,7.90
2023-05-11T04:55:07.934Z,6.97
2023-05-11T04:57:38.896Z,8.00
2023-05-11T05:00:11.080Z,7.73
2023-05-11T05:02:40.204Z,7.70
2023-05-11T05:05:09.983Z,7.23
2023-05-11T05:07:38.717Z,8.83
2023-05-11T05:10:09.341Z,7.40
2023-05-11T05:12:38.086Z,7.40
2023-05-11T05:15:09.624Z,7.23
2023-05-11T05:17:38.670Z,7.90
2023-05-11T05:20:08.908Z,7.30
2023-05-11T05:22:37.546Z,7.57
2023-05-11T05:25:07.012Z,7.53
2023-05-11T05:27:35.881Z,7.60
2023-05-11T05:30:04.739Z,7.60
2023-05-11T05:32:35.022Z,8.00
2023-05-11T05:35:04.137Z,6.63
2023-05-11T05:37:33.062Z,6.73
2023-05-11T05:40:01.815Z,7.93
2023-05-11T05:42:30.675Z,8.33
2023-05-11T05:44:59.312Z,8.33
2023-05-11T05:47:27.965Z,7.50
2023-05-11T05:49:57.998Z,7.97
2023-05-11T05:52:27.000Z,7.40
2023-05-11T05:54:55.625Z,7.07
2023-05-11T05:57:24.882Z,7.67
2023-05-11T05:59:57.381Z,8.10
2023-05-11T06:02:26.167Z,7.30
2023-05-11T06:04:55.172Z,7.70
2023-05-11T06:07:25.739Z,8.20
2023-05-11T06:09:54.627Z,7.83
2023-05-11T06:12:23.330Z,8.40
2023-05-11T06:14:52.030Z,8.03
2023-05-11T06:17:21.021Z,7.50
2023-05-11T06:19:52.869Z,8.37
2023-05-11T06:22:21.539Z,8.00
2023-05-11T06:24:51.733Z,7.40
2023-05-11T06:27:20.511Z,7.00
2023-05-11T06:29:49.282Z,7.40
2023-05-11T06:32:17.919Z,19.90
2023-05-11T06:34:46.589Z,7.97
2023-05-11T06:37:20.731Z,7.00
2023-05-11T06:39:50.778Z,7.53
2023-05-11T06:42:19.559Z,7.50
2023-05-11T06:44:48.307Z,6.40
2023-05-11T06:47:17.147Z,6.93
2023-05-11T06:49:45.988Z,6.77
2023-05-11T06:52:14.628Z,7.20
2023-05-11T06:54:43.333Z,6.33
2023-05-11T06:57:14.414Z,6.47
2023-05-11T06:59:44.224Z,6.10
2023-05-11T07:02:13.239Z,7.07
2023-05-11T07:04:41.935Z,6.60
2023-05-11T07:07:12.339Z,6.50
2023-05-11T07:09:42.115Z,6.13
2023-05-11T07:12:12.342Z,6.07
2023-05-11T07:14:41.002Z,6.20
2023-05-11T07:17:09.806Z,5.97
2023-05-11T07:19:38.586Z,5.43
2023-05-11T07:22:07.545Z,5.50
2023-05-11T07:24:36.813Z,6.20
2023-05-11T07:27:05.568Z,6.17
2023-05-11T07:29:35.660Z,5.80
2023-05-11T07:32:04.387Z,5.80
2023-05-11T07:34:33.098Z,7.83
2023-05-11T07:37:01.969Z,5.30
2023-05-11T07:39:48.877Z,6.50
2023-05-11T07:42:17.734Z,5.53
2023-05-11T07:44:47.991Z,5.30
2023-05-11T07:47:18.010Z,5.80
2023-05-11T07:49:47.701Z,5.43
2023-05-11T07:52:16.819Z,6.00
2023-05-11T07:54:46.611Z,5.73
2023-05-11T07:57:15.534Z,6.60
2023-05-11T07:59:44.644Z,5.67
2023-05-11T08:02:16.447Z,6.30
2023-05-11T08:04:45.268Z,5.47
2023-05-11T08:07:14.118Z,6.10
2023-05-11T08:09:43.072Z,4.83
2023-05-11T08:12:11.921Z,6.23
2023-05-11T08:14:40.591Z,5.30
2023-05-11T08:17:09.203Z,4.95
2023-05-11T08:19:39.380Z,4.90
2023-05-11T08:22:08.097Z,5.18
2023-05-11T08:24:37.144Z,4.80
2023-05-11T08:27:06.513Z,4.90
2023-05-11T08:29:35.269Z,4.78
2023-05-11T08:32:04.396Z,4.30
2023-05-11T08:34:33.582Z,4.55
2023-05-11T08:37:04.961Z,4.80
2023-05-11T08:39:46.783Z,5.05
2023-05-11T08:42:18.270Z,4.32
2023-05-11T08:44:48.922Z,4.07
2023-05-11T08:47:23.464Z,4.68
2023-05-11T08:49:55.584Z,4.30
2023-05-11T08:52:35.221Z,4.68
2023-05-11T08:55:05.064Z,4.60
2023-05-11T08:57:36.704Z,5.10
2023-05-11T09:00:08.062Z,4.55
2023-05-11T09:02:37.419Z,4.03
2023-05-11T09:05:07.220Z,4.13
2023-05-11T09:07:40.655Z,6.63
2023-05-11T09:10:12.916Z,4.32
2023-05-11T09:12:42.531Z,4.20
2023-05-11T09:15:12.555Z,3.50
2023-05-11T09:17:41.373Z,3.53
2023-05-11T09:20:11.071Z,3.10
2023-05-11T09:22:45.871Z,3.55
2023-05-11T09:25:17.901Z,3.00
2023-05-11T09:27:48.453Z,3.45
2023-05-11T09:30:22.408Z,3.13
2023-05-11T09:32:53.136Z,3.28
2023-05-11T09:35:24.415Z,3.60
2023-05-11T09:38:06.768Z,3.17
2023-05-11T09:40:39.694Z,3.58
2023-05-11T09:43:20.270Z,3.03
2023-05-11T09:45:50.437Z,3.08
2023-05-11T09:48:32.089Z,2.60
2023-05-11T09:51:03.866Z,2.97
2023-05-11T09:53:46.404Z,3.15
2023-05-11T09:56:16.138Z,2.67
2023-05-11T09:58:50.868Z,3.22
2023-05-11T10:01:31.508Z,3.00
2023-05-11T10:04:17.896Z,2.63
2023-05-11T10:06:53.877Z,2.88
2023-05-11T10:09:27.799Z,2.92
2023-05-11T10:11:58.837Z,2.47
2023-05-11T10:14:30.014Z,2.50
2023-05-11T10:17:00.189Z,2.67
2023-05-11T10:19:29.519Z,2.33
2023-05-11T10:21:58.956Z,2.50
2023-05-11T10:24:29.471Z,2.28
2023-05-11T10:26:59.241Z,2.30
2023-05-11T10:29:28.150Z,2.75
2023-05-11T10:31:59.226Z,2.20
2023-05-11T10:34:29.653Z,3.28
2023-05-11T10:37:01.266Z,2.40
2023-05-11T10:39:32.139Z,2.53
2023-05-11T10:42:44.049Z,2.28
2023-05-11T10:45:21.853Z,2.22
2023-05-11T10:48:24.506Z,2.20
2023-05-11T10:51:07.910Z,2.30
2023-05-11T10:53:51.817Z,2.50
2023-05-11T10:56:35.877Z,2.17
2023-05-11T10:59:31.978Z,1.98
2023-05-11T11:02:02.169Z,2.50
2023-05-11T11:04:44.313Z,2.75
2023-05-11T11:07:17.355Z,3.30
2023-05-11T11:09:54.140Z,2.53
2023-05-11T11:12:27.138Z,2.45
2023-05-11T11:14:57.778Z,2.38
2023-05-11T11:17:29.303Z,2.40
2023-05-11T11:19:58.110Z,2.20
2023-05-11T11:22:53.940Z,2.50
2023-05-11T11:25:53.679Z,2.17
2023-05-11T11:28:23.916Z,2.17
2023-05-11T11:31:25.797Z,2.28
2023-05-11T11:33:56.493Z,2.67
2023-05-11T11:37:03.715Z,2.67
2023-05-11T11:39:56.908Z,2.20
2023-05-11T11:42:39.007Z,3.88
2023-05-11T11:45:34.370Z,2.78
2023-05-11T11:48:13.451Z,2.58
2023-05-11T11:50:47.213Z,2.22
2023-05-11T11:53:58.454Z,2.17
2023-05-11T11:56:40.743Z,2.30
2023-05-11T11:59:14.085Z,1.83
2023-05-11T12:01:46.159Z,6.28
2023-05-11T12:04:47.646Z,2.80
2023-05-11T12:07:17.437Z,2.63
2023-05-11T12:09:47.842Z,2.60
2023-05-11T12:12:19.244Z,2.47
2023-05-11T12:14:50.355Z,2.47
2023-05-11T12:17:28.452Z,2.53
2023-05-11T12:20:12.173Z,2.72
2023-05-11T12:22:40.969Z,2.80
2023-05-11T12:25:11.760Z,2.42
2023-05-11T12:27:49.863Z,3.08
2023-05-11T12:30:23.218Z,3.58
2023-05-11T12:32:57.539Z,4.00
2023-05-11T12:35:27.694Z,4.00
2023-05-11T12:37:57.564Z,4.37
2023-05-11T12:40:26.365Z,3.87
2023-05-11T12:42:56.412Z,3.87
2023-05-11T12:45:26.281Z,3.67
2023-05-11T12:47:58.816Z,4.00
2023-05-11T12:50:27.756Z,4.40
2023-05-11T12:52:56.494Z,4.17
2023-05-11T12:55:32.212Z,3.40
2023-05-11T12:58:10.449Z,4.00
2023-05-11T13:00:39.567Z,4.53
2023-05-11T13:03:12.299Z,4.10
2023-05-11T13:05:41.288Z,3.40
2023-05-11T13:08:12.003Z,3.77
2023-05-11T13:10:40.806Z,3.77
2023-05-11T13:13:10.318Z,4.50
2023-05-11T13:15:52.985Z,3.60
2023-05-11T13:18:23.560Z,2.87
2023-05-11T13:21:07.164Z,3.33
2023-05-11T13:23:37.147Z,3.00
2023-05-11T13:26:06.555Z,3.50
2023-05-11T13:28:35.642Z,3.07
2023-05-11T13:31:04.413Z,3.40
2023-05-11T13:33:36.443Z,3.03
2023-05-11T13:36:07.105Z,3.43
2023-05-11T13:38:36.838Z,3.47
2023-05-11T13:41:07.065Z,3.57
2023-05-11T13:43:36.054Z,3.40
2023-05-11T13:46:05.411Z,3.20
2023-05-11T13:48:35.490Z,3.13
2023-05-11T13:51:04.585Z,2.80
2023-05-11T13:53:33.321Z,3.30
2023-05-11T13:56:03.572Z,2.83
2023-05-11T13:58:32.489Z,2.90
2023-05-11T14:01:07.577Z,2.78
2023-05-11T14:03:40.956Z,2.88
2023-05-11T14:06:10.323Z,2.78
2023-05-11T14:08:38.993Z,2.90
2023-05-11T14:11:07.727Z,3.63
2023-05-11T14:13:36.385Z,2.77
2023-05-11T14:16:05.209Z,2.80
2023-05-11T14:18:34.038Z,3.57
2023-05-11T14:21:04.339Z,3.10
2023-05-11T14:23:33.131Z,3.00
2023-05-11T14:26:01.716Z,3.13
2023-05-11T14:28:30.578Z,2.90
2023-05-11T14:30:59.867Z,3.10
2023-05-11T14:33:28.896Z,3.07
2023-05-11T14:35:57.723Z,3.13
2023-05-11T14:38:29.958Z,3.17
2023-05-11T14:41:00.255Z,2.63
2023-05-11T14:43:29.022Z,3.23
2023-05-11T14:45:57.734Z,3.50
2023-05-11T14:48:26.656Z,3.00
2023-05-11T14:50:55.347Z,3.87
2023-05-11T14:53:24.085Z,3.50
2023-05-11T14:55:54.266Z,3.87
2023-05-11T14:58:23.112Z,3.67
2023-05-11T15:00:51.891Z,3.80
2023-05-11T15:03:20.722Z,3.23
2023-05-11T15:05:49.526Z,3.70
2023-05-11T15:08:29.168Z,3.10
2023-05-11T15:11:00.764Z,3.47
2023-05-11T15:13:29.637Z,3.53
2023-05-11T15:15:59.004Z,3.17
2023-05-11T15:18:42.821Z,3.33
2023-05-11T15:21:12.651Z,3.37
2023-05-11T15:23:41.647Z,3.40
2023-05-11T15:26:12.213Z,3.33
2023-05-11T15:28:41.163Z,3.70
2023-05-11T15:31:10.007Z,3.37
2023-05-11T15:33:40.077Z,3.23
2023-05-11T15:36:29.462Z,3.03
2023-05-11T15:39:01.637Z,3.90
2023-05-11T15:41:35.651Z,3.90
2023-05-11T15:44:05.995Z,3.40
2023-05-11T15:46:36.637Z,2.87
2023-05-11T15:49:07.306Z,3.33
2023-05-11T15:51:38.566Z,3.23
2023-05-11T15:54:08.178Z,3.53
2023-05-11T15:56:46.738Z,3.23
2023-05-11T15:59:17.206Z,3.90
2023-05-11T16:01:46.576Z,3.50
2023-05-11T16:04:16.820Z,3.70
2023-05-11T16:06:49.705Z,3.80
2023-05-11T16:09:34.262Z,2.90
2023-05-11T16:12:04.702Z,3.27
2023-05-11T16:14:33.612Z,3.53
2023-05-11T16:17:03.347Z,3.03
2023-05-11T16:19:32.606Z,3.87
2023-05-11T16:22:01.629Z,3.63
2023-05-11T16:24:32.864Z,4.07
2023-05-11T16:27:04.652Z,4.00
2023-05-11T16:29:33.616Z,4.57
2023-05-11T16:32:02.685Z,3.80
2023-05-11T16:34:31.661Z,3.20
2023-05-11T16:37:00.617Z,4.00
2023-05-11T16:39:29.613Z,3.67
2023-05-11T16:41:58.577Z,3.57
2023-05-11T16:44:28.873Z,3.90
2023-05-11T16:46:58.746Z,4.20
2023-05-11T16:49:27.713Z,3.47
2023-05-11T16:51:56.508Z,3.67
2023-05-11T16:54:26.599Z,3.63
2023-05-11T16:56:55.648Z,3.73
2023-05-11T16:59:24.427Z,3.83
2023-05-11T17:01:54.992Z,3.83
2023-05-11T17:04:23.950Z,3.20
2023-05-11T17:06:52.873Z,4.73
2023-05-11T17:09:21.991Z,4.10
2023-05-11T17:11:50.790Z,4.70
2023-05-11T17:14:19.620Z,4.13
2023-05-11T17:16:48.526Z,4.70
2023-05-11T17:19:19.049Z,3.87
2023-05-11T17:21:47.889Z,4.00
2023-05-11T17:24:16.754Z,4.20
2023-05-11T17:26:48.347Z,4.00
2023-05-11T17:29:17.497Z,4.10
2023-05-11T17:31:49.283Z,3.70
2023-05-11T17:34:23.642Z,16.60
2023-05-11T17:36:54.911Z,3.97
2023-05-11T17:39:23.877Z,3.90
2023-05-11T17:41:52.885Z,4.20
2023-05-11T17:44:21.704Z,4.03
2023-05-11T17:46:51.097Z,4.50
2023-05-11T17:49:21.544Z,3.80
2023-05-11T17:51:50.363Z,4.60
2023-05-11T17:54:19.456Z,3.67
2023-05-11T17:56:49.085Z,3.77
2023-05-11T17:59:19.765Z,3.50
2023-05-11T18:01:50.200Z,4.73
2023-05-11T18:04:21.349Z,3.80
2023-05-11T18:06:50.191Z,3.80
2023-05-11T18:09:20.336Z,4.33
2023-05-11T18:11:49.110Z,3.63
2023-05-11T18:14:18.481Z,3.60
2023-05-11T18:16:49.694Z,3.43
2023-05-11T18:19:18.835Z,3.93
2023-05-11T18:21:50.024Z,4.07
2023-05-11T18:24:20.870Z,3.83
2023-05-11T18:26:50.019Z,3.63
2023-05-11T18:29:20.453Z,4.30
2023-05-11T18:31:49.893Z,3.97
2023-05-11T18:34:19.200Z,4.30
2023-05-11T18:36:49.466Z,4.50
2023-05-11T18:39:19.784Z,3.33
2023-05-11T18:41:48.799Z,20.53
2023-05-11T18:44:19.846Z,3.50
2023-05-11T18:46:48.763Z,3.70
2023-05-11T18:49:17.737Z,3.80
2023-05-11T18:51:47.127Z,3.50
2023-05-11T18:54:17.857Z,3.93
2023-05-11T18:56:47.259Z,3.83
2023-05-11T18:59:16.116Z,4.10
2023-05-11T19:01:47.959Z,3.83
2023-05-11T19:04:20.102Z,4.20
2023-05-11T19:06:50.386Z,3.97
2023-05-11T19:09:22.656Z,4.00
2023-05-11T19:11:52.004Z,3.73
2023-05-11T19:14:22.290Z,3.73
2023-05-11T19:16:51.441Z,3.90
2023-05-11T19:19:20.563Z,3.70
2023-05-11T19:21:49.342Z,3.60
2023-05-11T19:24:20.682Z,4.50
2023-05-11T19:27:02.618Z,4.20
2023-05-11T19:29:37.196Z,5.40
2023-05-11T19:32:07.444Z,4.27
2023-05-11T19:34:36.464Z,4.73
2023-05-11T19:37:05.661Z,4.60
2023-05-11T19:39:36.135Z,5.63
2023-05-11T19:42:05.123Z,5.60
2023-05-11T19:44:34.904Z,5.00
2023-05-11T19:47:03.887Z,5.57
2023-05-11T19:49:32.856Z,4.77
2023-05-11T19:52:01.721Z,4.47
2023-05-11T19:54:30.652Z,4.63
2023-05-11T19:57:01.267Z,4.40
2023-05-11T19:59:33.144Z,4.87
2023-05-11T20:02:03.307Z,5.17
2023-05-11T20:04:35.589Z,5.47
2023-05-11T20:07:04.500Z,5.33
2023-05-11T20:09:33.398Z,5.17
2023-05-11T20:12:03.803Z,5.23
2023-05-11T20:14:32.865Z,5.53
2023-05-11T20:17:02.014Z,5.17
2023-05-11T20:19:30.894Z,5.70
2023-05-11T20:21:59.697Z,6.90
2023-05-11T20:24:28.479Z,6.07
2023-05-11T20:26:57.394Z,6.40
2023-05-11T20:29:28.630Z,6.97
2023-05-11T20:31:57.466Z,7.10
2023-05-11T20:34:26.501Z,6.87
2023-05-11T20:36:55.476Z,6.13
2023-05-11T20:39:25.978Z,5.70
2023-05-11T20:41:55.420Z,6.80
2023-05-11T20:44:25.001Z,5.97
2023-05-11T20:46:55.295Z,6.07
2023-05-11T20:49:38.360Z,6.20
2023-05-11T20:52:08.273Z,5.93
2023-05-11T20:54:37.603Z,5.93
2023-05-11T20:57:06.736Z,6.73
2023-05-11T21:02:09.239Z,6.20
2023-05-11T21:04:38.151Z,5.93
2023-05-11T21:07:07.081Z,5.90
2023-05-11T21:09:36.524Z,5.80
2023-05-11T21:12:05.628Z,5.67
2023-05-11T21:14:34.718Z,5.57
2023-05-11T21:17:03.379Z,4.70
2023-05-11T21:19:33.561Z,6.10
2023-05-11T21:22:02.270Z,5.50
2023-05-11T21:24:30.948Z,5.67
2023-05-11T21:26:59.825Z,5.27
2023-05-11T21:29:28.581Z,5.30
2023-05-11T21:31:57.415Z,6.30
2023-05-11T21:34:26.105Z,5.27
2023-05-11T21:36:56.550Z,5.97
2023-05-11T21:39:25.392Z,5.67
2023-05-11T21:41:57.238Z,5.70
2023-05-11T21:44:25.956Z,6.60
2023-05-11T21:46:54.674Z,5.77
2023-05-11T21:49:23.271Z,6.90
2023-05-11T21:51:52.465Z,5.70
2023-05-11T21:54:22.731Z,5.60
2023-05-11T21:56:52.306Z,6.20
2023-05-11T21:59:21.402Z,5.70
2023-05-11T22:01:49.993Z,5.47
2023-05-11T22:04:18.796Z,5.73
2023-05-11T22:06:48.431Z,5.73
2023-05-11T22:09:17.510Z,5.67
2023-05-11T22:11:48.134Z,5.83
2023-05-11T22:14:16.784Z,5.80
2023-05-11T22:16:45.571Z,6.47
2023-05-11T22:19:15.114Z,6.07
2023-05-11T22:21:43.841Z,5.50
2023-05-11T22:24:13.690Z,7.97
2023-05-11T22:26:42.371Z,5.10
2023-05-11T22:29:12.510Z,5.40
2023-05-11T22:31:42.020Z,5.20
2023-05-11T22:34:12.189Z,5.80
2023-05-11T22:36:40.884Z,5.70
2023-05-11T22:39:11.515Z,6.47
2023-05-11T22:41:40.373Z,5.97
2023-05-11T22:44:09.486Z,5.50
2023-05-11T22:46:39.686Z,5.70
2023-05-11T22:49:08.589Z,5.97
2023-05-11T22:51:37.244Z,5.30
2023-05-11T22:54:06.228Z,6.07
2023-05-11T22:56:34.946Z,6.00
2023-05-11T22:59:04.966Z,6.60
2023-05-11T23:01:34.331Z,5.70
2023-05-11T23:04:04.621Z,5.63
2023-05-11T23:06:33.798Z,5.80
2023-05-11T23:09:02.562Z,6.10
2023-05-11T23:11:46.541Z,5.60
2023-05-11T23:14:15.290Z,5.87
2023-05-11T23:16:44.069Z,6.03
2023-05-11T23:19:14.283Z,5.97
2023-05-11T23:21:43.076Z,6.70
2023-05-11T23:24:12.415Z,6.10
2023-05-11T23:26:41.266Z,6.87
2023-05-11T23:29:10.049Z,7.10
2023-05-11T23:31:39.303Z,5.70
2023-05-11T23:34:08.057Z,6.57
2023-05-11T23:36:38.400Z,6.80
2023-05-11T23:39:07.266Z,6.50
2023-05-11T23:41:35.984Z,6.20
2023-05-11T23:44:05.054Z,6.53
2023-05-11T23:46:36.221Z,7.07
2023-05-11T23:49:05.032Z,7.70
2023-05-11T23:51:33.798Z,6.23
2023-05-11T23:54:04.052Z,6.50
2023-05-11T23:56:32.787Z,8.00
2023-05-11T23:59:01.491Z,7.33
